sensor_id;sensor_type;location;lat;lon;timestamp;temperature;humidity
27823;DHT22;29019;47.630;8.262;2024-03-02T00:03:11;20.00;38.70
27823;DHT22;29019;47.630;8.262;2024-03-02T00:07:14;19.90;38.60
27823;DHT22;29019;47.630;8.262;2024-03-02T00:11:15;19.80;40.00
27823;DHT22;29019;47.630;8.262;2024-03-02T00:19:45;19.70;39.50
27823;DHT22;29019;47.630;8.262;2024-03-02T00:23:45;19.80;39.10
27823;DHT22;29019;47.630;8.262;2024-03-02T00:27:48;19.80;38.80
27823;DHT22;29019;47.630;8.262;2024-03-02T00:31:49;19.80;38.80
27823;DHT22;29019;47.630;8.262;2024-03-02T00:35:50;19.80;38.90
27823;DHT22;29019;47.630;8.262;2024-03-02T00:39:51;19.90;38.90
27823;DHT22;29019;47.630;8.262;2024-03-02T00:43:58;19.90;38.80
27823;DHT22;29019;47.630;8.262;2024-03-02T00:47:58;19.90;38.90
27823;DHT22;29019;47.630;8.262;2024-03-02T00:51:59;19.90;38.80
27823;DHT22;29019;47.630;8.262;2024-03-02T00:56:01;19.80;39.40
27823;DHT22;29019;47.630;8.262;2024-03-02T01:00:02;19.70;40.10
27823;DHT22;29019;47.630;8.262;2024-03-02T01:04:04;19.60;40.00
27823;DHT22;29019;47.630;8.262;2024-03-02T01:08:05;19.60;39.50
27823;DHT22;29019;47.630;8.262;2024-03-02T01:12:06;19.60;39.20
27823;DHT22;29019;47.630;8.262;2024-03-02T01:16:07;19.60;39.00
27823;DHT22;29019;47.630;8.262;2024-03-02T01:20:08;19.70;38.80
27823;DHT22;29019;47.630;8.262;2024-03-02T01:24:10;19.70;38.60
27823;DHT22;29019;47.630;8.262;2024-03-02T01:28:10;19.70;38.50
27823;DHT22;29019;47.630;8.262;2024-03-02T01:32:11;19.70;38.40
27823;DHT22;29019;47.630;8.262;2024-03-02T01:36:12;19.70;38.30
27823;DHT22;29019;47.630;8.262;2024-03-02T01:40:12;19.70;38.20
27823;DHT22;29019;47.630;8.262;2024-03-02T01:44:13;19.60;39.00
27823;DHT22;29019;47.630;8.262;2024-03-02T01:48:14;19.50;39.70
27823;DHT22;29019;47.630;8.262;2024-03-02T01:52:14;19.50;39.60
27823;DHT22;29019;47.630;8.262;2024-03-02T01:56:15;19.50;39.10
27823;DHT22;29019;47.630;8.262;2024-03-02T02:00:16;19.50;38.80
27823;DHT22;29019;47.630;8.262;2024-03-02T02:04:17;19.60;38.70
27823;DHT22;29019;47.630;8.262;2024-03-02T02:08:18;19.60;38.50
27823;DHT22;29019;47.630;8.262;2024-03-02T02:12:18;19.60;38.40
27823;DHT22;29019;47.630;8.262;2024-03-02T02:16:19;19.60;38.30
27823;DHT22;29019;47.630;8.262;2024-03-02T02:20:20;19.60;38.20
27823;DHT22;29019;47.630;8.262;2024-03-02T02:24:21;19.60;38.10
27823;DHT22;29019;47.630;8.262;2024-03-02T02:28:21;19.60;38.10
27823;DHT22;29019;47.630;8.262;2024-03-02T02:32:22;19.50;38.90
27823;DHT22;29019;47.630;8.262;2024-03-02T02:36:23;19.40;39.60
27823;DHT22;29019;47.630;8.262;2024-03-02T02:40:23;19.40;39.40
27823;DHT22;29019;47.630;8.262;2024-03-02T02:44:24;19.40;38.90
27823;DHT22;29019;47.630;8.262;2024-03-02T02:48:25;19.50;38.80
27823;DHT22;29019;47.630;8.262;2024-03-02T02:52:31;19.50;38.60
27823;DHT22;29019;47.630;8.262;2024-03-02T02:56:33;19.50;38.40
27823;DHT22;29019;47.630;8.262;2024-03-02T03:00:34;19.50;38.30
27823;DHT22;29019;47.630;8.262;2024-03-02T03:04:34;19.50;38.20
27823;DHT22;29019;47.630;8.262;2024-03-02T03:08:35;19.50;38.10
27823;DHT22;29019;47.630;8.262;2024-03-02T03:12:36;19.50;38.00
27823;DHT22;29019;47.630;8.262;2024-03-02T03:16:37;19.50;37.90
27823;DHT22;29019;47.630;8.262;2024-03-02T03:20:37;19.50;39.00
27823;DHT22;29019;47.630;8.262;2024-03-02T03:24:38;19.30;39.40
27823;DHT22;29019;47.630;8.262;2024-03-02T03:28:39;19.30;39.10
27823;DHT22;29019;47.630;8.262;2024-03-02T03:32:39;19.40;38.80
27823;DHT22;29019;47.630;8.262;2024-03-02T03:36:41;19.40;38.70
27823;DHT22;29019;47.630;8.262;2024-03-02T03:40:41;19.40;38.30
27823;DHT22;29019;47.630;8.262;2024-03-02T03:44:42;19.50;38.20
27823;DHT22;29019;47.630;8.262;2024-03-02T03:48:43;19.50;38.10
27823;DHT22;29019;47.630;8.262;2024-03-02T03:52:43;19.50;38.00
27823;DHT22;29019;47.630;8.262;2024-03-02T03:56:44;19.50;37.90
27823;DHT22;29019;47.630;8.262;2024-03-02T04:00:45;19.50;37.80
27823;DHT22;29019;47.630;8.262;2024-03-02T04:04:45;19.50;37.80
27823;DHT22;29019;47.630;8.262;2024-03-02T04:08:46;19.40;38.80
27823;DHT22;29019;47.630;8.262;2024-03-02T04:12:47;19.30;39.40
27823;DHT22;29019;47.630;8.262;2024-03-02T04:16:49;19.30;38.90
27823;DHT22;29019;47.630;8.262;2024-03-02T04:20:50;19.30;38.50
27823;DHT22;29019;47.630;8.262;2024-03-02T04:24:51;19.40;38.30
27823;DHT22;29019;47.630;8.262;2024-03-02T04:28:52;19.40;38.20
27823;DHT22;29019;47.630;8.262;2024-03-02T04:32:53;19.40;38.10
27823;DHT22;29019;47.630;8.262;2024-03-02T04:36:53;19.40;38.00
27823;DHT22;29019;47.630;8.262;2024-03-02T04:40:54;19.40;37.80
27823;DHT22;29019;47.630;8.262;2024-03-02T04:44:55;19.40;37.80
27823;DHT22;29019;47.630;8.262;2024-03-02T04:48:55;19.40;37.80
27823;DHT22;29019;47.630;8.262;2024-03-02T04:52:57;19.40;37.70
27823;DHT22;29019;47.630;8.262;2024-03-02T04:56:58;19.30;38.80
27823;DHT22;29019;47.630;8.262;2024-03-02T05:00:59;19.20;39.30
27823;DHT22;29019;47.630;8.262;2024-03-02T05:04:59;19.20;38.90
27823;DHT22;29019;47.630;8.262;2024-03-02T05:09:00;19.30;38.50
27823;DHT22;29019;47.630;8.262;2024-03-02T05:13:01;19.30;38.30
27823;DHT22;29019;47.630;8.262;2024-03-02T05:17:01;19.30;38.10
27823;DHT22;29019;47.630;8.262;2024-03-02T05:21:03;19.40;38.00
27823;DHT22;29019;47.630;8.262;2024-03-02T05:25:04;19.40;37.80
27823;DHT22;29019;47.630;8.262;2024-03-02T05:29:05;19.40;37.80
27823;DHT22;29019;47.630;8.262;2024-03-02T05:33:06;19.40;37.60
27823;DHT22;29019;47.630;8.262;2024-03-02T05:37:07;19.40;37.60
27823;DHT22;29019;47.630;8.262;2024-03-02T05:41:08;19.40;37.50
27823;DHT22;29019;47.630;8.262;2024-03-02T05:45:08;19.30;38.80
27823;DHT22;29019;47.630;8.262;2024-03-02T05:49:10;19.20;39.30
27823;DHT22;29019;47.630;8.262;2024-03-02T05:53:11;19.20;38.70
27823;DHT22;29019;47.630;8.262;2024-03-02T05:57:11;19.20;38.80
27823;DHT22;29019;47.630;8.262;2024-03-02T06:01:36;19.30;38.10
27823;DHT22;29019;47.630;8.262;2024-03-02T06:05:37;19.30;38.00
27823;DHT22;29019;47.630;8.262;2024-03-02T06:09:38;19.40;37.80
27823;DHT22;29019;47.630;8.262;2024-03-02T06:13:39;19.40;37.80
27823;DHT22;29019;47.630;8.262;2024-03-02T06:17:39;19.40;37.70
27823;DHT22;29019;47.630;8.262;2024-03-02T06:21:40;19.40;37.60
27823;DHT22;29019;47.630;8.262;2024-03-02T06:25:41;19.40;37.60
27823;DHT22;29019;47.630;8.262;2024-03-02T06:29:41;19.40;37.60
27823;DHT22;29019;47.630;8.262;2024-03-02T06:33:42;19.30;38.70
27823;DHT22;29019;47.630;8.262;2024-03-02T06:37:43;19.20;39.10
27823;DHT22;29019;47.630;8.262;2024-03-02T06:41:43;19.20;38.50
27823;DHT22;29019;47.630;8.262;2024-03-02T06:45:44;19.30;38.20
27823;DHT22;29019;47.630;8.262;2024-03-02T06:49:45;19.40;37.90
27823;DHT22;29019;47.630;8.262;2024-03-02T06:53:45;19.40;37.70
27823;DHT22;29019;47.630;8.262;2024-03-02T06:57:47;19.50;37.60
27823;DHT22;29019;47.630;8.262;2024-03-02T07:01:47;19.50;37.40
27823;DHT22;29019;47.630;8.262;2024-03-02T07:05:48;19.50;37.30
27823;DHT22;29019;47.630;8.262;2024-03-02T07:09:49;19.50;37.20
27823;DHT22;29019;47.630;8.262;2024-03-02T07:13:49;19.60;37.10
27823;DHT22;29019;47.630;8.262;2024-03-02T07:17:50;19.60;37.40
27823;DHT22;29019;47.630;8.262;2024-03-02T07:21:51;19.50;38.40
27823;DHT22;29019;47.630;8.262;2024-03-02T07:25:53;19.40;38.50
27823;DHT22;29019;47.630;8.262;2024-03-02T07:29:57;19.50;38.00
27823;DHT22;29019;47.630;8.262;2024-03-02T07:33:57;19.50;37.70
27823;DHT22;29019;47.630;8.262;2024-03-02T07:37:58;19.50;37.50
27823;DHT22;29019;47.630;8.262;2024-03-02T07:41:59;19.60;37.40
27823;DHT22;29019;47.630;8.262;2024-03-02T07:46:00;19.50;37.30
27823;DHT22;29019;47.630;8.262;2024-03-02T07:50:01;19.60;37.20
27823;DHT22;29019;47.630;8.262;2024-03-02T07:54:03;19.60;37.10
27823;DHT22;29019;47.630;8.262;2024-03-02T07:58:04;19.60;37.10
27823;DHT22;29019;47.630;8.262;2024-03-02T08:02:05;19.50;37.00
27823;DHT22;29019;47.630;8.262;2024-03-02T08:06:06;19.50;37.70
27823;DHT22;29019;47.630;8.262;2024-03-02T08:10:07;19.40;38.50
27823;DHT22;29019;47.630;8.262;2024-03-02T08:14:08;19.30;38.50
27823;DHT22;29019;47.630;8.262;2024-03-02T08:18:08;19.40;38.00
27823;DHT22;29019;47.630;8.262;2024-03-02T08:22:09;19.50;37.70
27823;DHT22;29019;47.630;8.262;2024-03-02T08:26:11;19.50;37.50
27823;DHT22;29019;47.630;8.262;2024-03-02T08:30:12;19.50;37.40
27823;DHT22;29019;47.630;8.262;2024-03-02T08:34:13;19.60;37.30
27823;DHT22;29019;47.630;8.262;2024-03-02T08:38:13;19.60;37.20
27823;DHT22;29019;47.630;8.262;2024-03-02T08:42:14;19.60;37.10
27823;DHT22;29019;47.630;8.262;2024-03-02T08:46:15;19.60;37.00
27823;DHT22;29019;47.630;8.262;2024-03-02T08:50:16;19.60;36.90
27823;DHT22;29019;47.630;8.262;2024-03-02T08:54:16;19.60;37.60
27823;DHT22;29019;47.630;8.262;2024-03-02T08:58:17;19.50;38.30
27823;DHT22;29019;47.630;8.262;2024-03-02T09:02:18;19.50;38.30
27823;DHT22;29019;47.630;8.262;2024-03-02T09:06:18;19.50;37.70
27823;DHT22;29019;47.630;8.262;2024-03-02T09:10:21;19.50;37.50
27823;DHT22;29019;47.630;8.262;2024-03-02T09:14:22;19.60;37.40
27823;DHT22;29019;47.630;8.262;2024-03-02T09:18:23;19.60;37.30
27823;DHT22;29019;47.630;8.262;2024-03-02T09:22:24;19.50;37.10
27823;DHT22;29019;47.630;8.262;2024-03-02T09:26:25;19.60;37.10
27823;DHT22;29019;47.630;8.262;2024-03-02T09:30:26;19.60;37.00
27823;DHT22;29019;47.630;8.262;2024-03-02T09:34:26;19.60;36.90
27823;DHT22;29019;47.630;8.262;2024-03-02T09:38:27;19.60;36.90
27823;DHT22;29019;47.630;8.262;2024-03-02T09:42:28;19.60;37.70
27823;DHT22;29019;47.630;8.262;2024-03-02T09:46:29;19.50;38.40
27823;DHT22;29019;47.630;8.262;2024-03-02T09:50:30;19.40;38.10
27823;DHT22;29019;47.630;8.262;2024-03-02T09:54:31;19.40;37.70
27823;DHT22;29019;47.630;8.262;2024-03-02T09:58:32;19.50;37.40
27823;DHT22;29019;47.630;8.262;2024-03-02T10:02:32;19.50;37.20
27823;DHT22;29019;47.630;8.262;2024-03-02T10:06:33;19.60;37.20
27823;DHT22;29019;47.630;8.262;2024-03-02T10:10:36;19.60;37.10
27823;DHT22;29019;47.630;8.262;2024-03-02T10:14:40;19.60;37.00
27823;DHT22;29019;47.630;8.262;2024-03-02T10:18:41;19.50;37.00
27823;DHT22;29019;47.630;8.262;2024-03-02T10:22:42;19.50;37.10
27823;DHT22;29019;47.630;8.262;2024-03-02T10:26:42;19.50;37.00
27823;DHT22;29019;47.630;8.262;2024-03-02T10:30:47;19.50;38.10
27823;DHT22;29019;47.630;8.262;2024-03-02T10:34:50;19.40;38.60
27823;DHT22;29019;47.630;8.262;2024-03-02T10:38:50;19.30;38.40
27823;DHT22;29019;47.630;8.262;2024-03-02T10:42:56;19.20;38.30
27823;DHT22;29019;47.630;8.262;2024-03-02T10:47:04;19.10;38.50
27823;DHT22;29019;47.630;8.262;2024-03-02T10:51:05;19.20;38.00
27823;DHT22;29019;47.630;8.262;2024-03-02T10:55:11;19.40;37.90
27823;DHT22;29019;47.630;8.262;2024-03-02T11:03:23;20.00;37.80
27823;DHT22;29019;47.630;8.262;2024-03-02T11:07:24;20.10;37.70
27823;DHT22;29019;47.630;8.262;2024-03-02T11:11:30;20.30;37.50
27823;DHT22;29019;47.630;8.262;2024-03-02T11:15:34;20.40;37.80
27823;DHT22;29019;47.630;8.262;2024-03-02T11:19:39;20.20;39.00
27823;DHT22;29019;47.630;8.262;2024-03-02T11:23:41;20.00;39.70
27823;DHT22;29019;47.630;8.262;2024-03-02T11:31:58;19.70;38.70
27823;DHT22;29019;47.630;8.262;2024-03-02T11:36:01;19.50;38.50
27823;DHT22;29019;47.630;8.262;2024-03-02T11:40:02;19.50;38.50
27823;DHT22;29019;47.630;8.262;2024-03-02T11:44:04;19.40;38.70
27823;DHT22;29019;47.630;8.262;2024-03-02T11:48:06;19.40;38.30
27823;DHT22;29019;47.630;8.262;2024-03-02T11:52:10;19.40;38.20
27823;DHT22;29019;47.630;8.262;2024-03-02T11:56:12;19.40;38.00
27823;DHT22;29019;47.630;8.262;2024-03-02T12:00:18;19.40;37.70
27823;DHT22;29019;47.630;8.262;2024-03-02T12:04:19;19.40;37.70
27823;DHT22;29019;47.630;8.262;2024-03-02T12:08:20;19.20;39.30
27823;DHT22;29019;47.630;8.262;2024-03-02T12:12:21;19.10;39.20
27823;DHT22;29019;47.630;8.262;2024-03-02T12:16:24;19.20;38.40
27823;DHT22;29019;47.630;8.262;2024-03-02T12:20:31;19.30;37.90
27823;DHT22;29019;47.630;8.262;2024-03-02T12:24:32;19.30;37.60
27823;DHT22;29019;47.630;8.262;2024-03-02T12:28:34;19.40;37.50
27823;DHT22;29019;47.630;8.262;2024-03-02T12:32:35;19.40;37.30
27823;DHT22;29019;47.630;8.262;2024-03-02T12:36:39;19.40;37.20
27823;DHT22;29019;47.630;8.262;2024-03-02T12:40:39;19.40;37.30
27823;DHT22;29019;47.630;8.262;2024-03-02T12:44:40;19.30;37.20
27823;DHT22;29019;47.630;8.262;2024-03-02T12:48:41;19.40;37.20
27823;DHT22;29019;47.630;8.262;2024-03-02T12:52:42;19.30;37.30
27823;DHT22;29019;47.630;8.262;2024-03-02T12:56:43;19.20;39.00
27823;DHT22;29019;47.630;8.262;2024-03-02T13:00:47;19.10;39.10
27823;DHT22;29019;47.630;8.262;2024-03-02T13:04:55;19.10;38.80
27823;DHT22;29019;47.630;8.262;2024-03-02T13:08:56;19.20;39.00
27823;DHT22;29019;47.630;8.262;2024-03-02T13:12:56;19.20;39.80
27823;DHT22;29019;47.630;8.262;2024-03-02T13:16:57;19.20;39.90
27823;DHT22;29019;47.630;8.262;2024-03-02T13:20:58;19.20;39.60
27823;DHT22;29019;47.630;8.262;2024-03-02T13:24:59;19.20;39.60
27823;DHT22;29019;47.630;8.262;2024-03-02T13:29:01;19.30;39.70
27823;DHT22;29019;47.630;8.262;2024-03-02T13:33:02;19.30;40.20
27823;DHT22;29019;47.630;8.262;2024-03-02T13:37:03;19.40;39.90
27823;DHT22;29019;47.630;8.262;2024-03-02T13:41:05;19.40;40.40
27823;DHT22;29019;47.630;8.262;2024-03-02T13:45:06;19.50;41.10
27823;DHT22;29019;47.630;8.262;2024-03-02T13:49:07;19.50;40.70
27823;DHT22;29019;47.630;8.262;2024-03-02T13:53:08;19.50;40.60
27823;DHT22;29019;47.630;8.262;2024-03-02T13:57:10;19.50;40.50
27823;DHT22;29019;47.630;8.262;2024-03-02T14:01:11;19.60;40.40
27823;DHT22;29019;47.630;8.262;2024-03-02T14:05:12;19.60;40.70
27823;DHT22;29019;47.630;8.262;2024-03-02T14:09:14;19.60;39.90
27823;DHT22;29019;47.630;8.262;2024-03-02T14:13:15;19.60;39.30
27823;DHT22;29019;47.630;8.262;2024-03-02T14:17:16;19.50;38.80
27823;DHT22;29019;47.630;8.262;2024-03-02T14:21:17;19.50;38.70
27823;DHT22;29019;47.630;8.262;2024-03-02T14:25:17;19.50;38.70
27823;DHT22;29019;47.630;8.262;2024-03-02T14:29:19;19.50;38.90
27823;DHT22;29019;47.630;8.262;2024-03-02T14:33:20;19.40;38.50
27823;DHT22;29019;47.630;8.262;2024-03-02T14:37:20;19.30;38.20
27823;DHT22;29019;47.630;8.262;2024-03-02T14:41:22;19.30;38.20
27823;DHT22;29019;47.630;8.262;2024-03-02T14:45:24;19.20;38.00
27823;DHT22;29019;47.630;8.262;2024-03-02T14:49:25;19.20;37.80
27823;DHT22;29019;47.630;8.262;2024-03-02T14:53:26;19.20;37.70
27823;DHT22;29019;47.630;8.262;2024-03-02T14:57:27;19.20;37.60
27823;DHT22;29019;47.630;8.262;2024-03-02T15:01:28;19.10;37.20
27823;DHT22;29019;47.630;8.262;2024-03-02T15:05:28;19.10;37.20
27823;DHT22;29019;47.630;8.262;2024-03-02T15:09:29;19.10;37.00
27823;DHT22;29019;47.630;8.262;2024-03-02T15:13:30;19.10;36.90
27823;DHT22;29019;47.630;8.262;2024-03-02T15:17:30;19.10;36.90
27823;DHT22;29019;47.630;8.262;2024-03-02T15:21:31;19.10;36.80
27823;DHT22;29019;47.630;8.262;2024-03-02T15:25:32;19.10;36.70
27823;DHT22;29019;47.630;8.262;2024-03-02T15:29:32;19.10;36.70
27823;DHT22;29019;47.630;8.262;2024-03-02T15:33:33;19.10;36.70
27823;DHT22;29019;47.630;8.262;2024-03-02T15:37:34;19.10;37.10
27823;DHT22;29019;47.630;8.262;2024-03-02T15:41:34;19.20;37.10
27823;DHT22;29019;47.630;8.262;2024-03-02T15:45:35;19.20;36.90
27823;DHT22;29019;47.630;8.262;2024-03-02T15:49:36;19.20;36.70
27823;DHT22;29019;47.630;8.262;2024-03-02T15:53:37;19.20;36.60
27823;DHT22;29019;47.630;8.262;2024-03-02T15:57:37;19.20;36.50
27823;DHT22;29019;47.630;8.262;2024-03-02T16:01:38;19.20;36.30
27823;DHT22;29019;47.630;8.262;2024-03-02T16:05:39;19.20;36.40
27823;DHT22;29019;47.630;8.262;2024-03-02T16:09:40;19.10;36.30
27823;DHT22;29019;47.630;8.262;2024-03-02T16:13:40;19.10;36.70
27823;DHT22;29019;47.630;8.262;2024-03-02T16:17:41;19.20;36.60
27823;DHT22;29019;47.630;8.262;2024-03-02T16:21:42;19.30;36.70
27823;DHT22;29019;47.630;8.262;2024-03-02T16:25:43;19.40;36.90
27823;DHT22;29019;47.630;8.262;2024-03-02T16:29:44;19.30;36.80
27823;DHT22;29019;47.630;8.262;2024-03-02T16:33:45;19.40;36.80
27823;DHT22;29019;47.630;8.262;2024-03-02T16:37:45;19.40;37.00
27823;DHT22;29019;47.630;8.262;2024-03-02T16:41:47;19.40;37.10
27823;DHT22;29019;47.630;8.262;2024-03-02T16:45:48;19.50;37.40
27823;DHT22;29019;47.630;8.262;2024-03-02T16:49:49;19.50;37.30
27823;DHT22;29019;47.630;8.262;2024-03-02T16:53:50;19.40;37.40
27823;DHT22;29019;47.630;8.262;2024-03-02T16:57:50;19.50;37.60
27823;DHT22;29019;47.630;8.262;2024-03-02T17:01:51;19.50;37.60
27823;DHT22;29019;47.630;8.262;2024-03-02T17:05:52;19.50;37.80
27823;DHT22;29019;47.630;8.262;2024-03-02T17:09:52;19.50;38.20
27823;DHT22;29019;47.630;8.262;2024-03-02T17:13:56;19.50;38.10
27823;DHT22;29019;47.630;8.262;2024-03-02T17:17:57;19.50;38.10
27823;DHT22;29019;47.630;8.262;2024-03-02T17:21:58;19.50;38.20
27823;DHT22;29019;47.630;8.262;2024-03-02T17:25:59;19.60;38.40
27823;DHT22;29019;47.630;8.262;2024-03-02T17:30:00;19.60;38.70
27823;DHT22;29019;47.630;8.262;2024-03-02T17:34:00;19.60;38.40
27823;DHT22;29019;47.630;8.262;2024-03-02T17:38:01;19.60;38.80
27823;DHT22;29019;47.630;8.262;2024-03-02T17:42:02;19.60;38.80
27823;DHT22;29019;47.630;8.262;2024-03-02T17:46:03;19.60;38.60
27823;DHT22;29019;47.630;8.262;2024-03-02T17:50:04;19.60;38.80
27823;DHT22;29019;47.630;8.262;2024-03-02T17:54:04;19.60;38.70
27823;DHT22;29019;47.630;8.262;2024-03-02T17:58:06;19.60;39.30
27823;DHT22;29019;47.630;8.262;2024-03-02T18:02:06;19.70;38.80
27823;DHT22;29019;47.630;8.262;2024-03-02T18:06:08;19.70;39.10
27823;DHT22;29019;47.630;8.262;2024-03-02T18:10:13;19.70;39.30
27823;DHT22;29019;47.630;8.262;2024-03-02T18:14:14;19.80;39.10
27823;DHT22;29019;47.630;8.262;2024-03-02T18:18:15;19.80;39.00
27823;DHT22;29019;47.630;8.262;2024-03-02T18:22:17;19.80;39.10
27823;DHT22;29019;47.630;8.262;2024-03-02T18:26:18;19.80;39.00
27823;DHT22;29019;47.630;8.262;2024-03-02T18:30:19;19.80;40.00
27823;DHT22;29019;47.630;8.262;2024-03-02T18:34:20;19.80;39.10
27823;DHT22;29019;47.630;8.262;2024-03-02T18:38:20;19.80;39.20
27823;DHT22;29019;47.630;8.262;2024-03-02T18:42:21;19.80;39.30
27823;DHT22;29019;47.630;8.262;2024-03-02T18:46:22;19.80;39.30
27823;DHT22;29019;47.630;8.262;2024-03-02T18:50:22;19.80;39.80
27823;DHT22;29019;47.630;8.262;2024-03-02T18:54:23;19.80;39.20
27823;DHT22;29019;47.630;8.262;2024-03-02T18:58:23;19.80;39.10
27823;DHT22;29019;47.630;8.262;2024-03-02T19:02:25;19.70;39.10
27823;DHT22;29019;47.630;8.262;2024-03-02T19:06:26;19.80;39.30
27823;DHT22;29019;47.630;8.262;2024-03-02T19:10:27;19.80;39.30
27823;DHT22;29019;47.630;8.262;2024-03-02T19:14:28;19.80;39.90
27823;DHT22;29019;47.630;8.262;2024-03-02T19:18:30;19.80;39.80
27823;DHT22;29019;47.630;8.262;2024-03-02T19:22:30;19.90;40.00
27823;DHT22;29019;47.630;8.262;2024-03-02T19:26:33;19.80;39.80
27823;DHT22;29019;47.630;8.262;2024-03-02T19:30:34;19.90;40.40
27823;DHT22;29019;47.630;8.262;2024-03-02T19:34:35;19.90;40.40
27823;DHT22;29019;47.630;8.262;2024-03-02T19:38:36;19.90;40.90
27823;DHT22;29019;47.630;8.262;2024-03-02T19:42:37;19.80;40.90
27823;DHT22;29019;47.630;8.262;2024-03-02T19:46:38;19.90;40.80
27823;DHT22;29019;47.630;8.262;2024-03-02T19:50:38;19.90;40.90
27823;DHT22;29019;47.630;8.262;2024-03-02T19:54:41;19.90;41.10
27823;DHT22;29019;47.630;8.262;2024-03-02T19:58:41;19.90;41.10
27823;DHT22;29019;47.630;8.262;2024-03-02T20:02:43;19.90;41.10
27823;DHT22;29019;47.630;8.262;2024-03-02T20:06:44;19.90;41.30
27823;DHT22;29019;47.630;8.262;2024-03-02T20:10:44;19.90;41.20
27823;DHT22;29019;47.630;8.262;2024-03-02T20:14:45;20.00;41.00
27823;DHT22;29019;47.630;8.262;2024-03-02T20:18:46;20.00;40.90
27823;DHT22;29019;47.630;8.262;2024-03-02T20:22:47;20.00;40.90
27823;DHT22;29019;47.630;8.262;2024-03-02T20:26:47;20.00;40.90
27823;DHT22;29019;47.630;8.262;2024-03-02T20:30:48;19.90;40.70
27823;DHT22;29019;47.630;8.262;2024-03-02T20:34:49;19.90;41.10
27823;DHT22;29019;47.630;8.262;2024-03-02T20:38:49;19.90;40.80
27823;DHT22;29019;47.630;8.262;2024-03-02T20:42:50;19.90;41.00
27823;DHT22;29019;47.630;8.262;2024-03-02T20:46:51;19.90;41.20
27823;DHT22;29019;47.630;8.262;2024-03-02T20:50:53;19.90;41.30
27823;DHT22;29019;47.630;8.262;2024-03-02T20:54:53;19.90;41.30
27823;DHT22;29019;47.630;8.262;2024-03-02T20:58:54;20.00;41.30
27823;DHT22;29019;47.630;8.262;2024-03-02T21:02:55;20.00;41.40
27823;DHT22;29019;47.630;8.262;2024-03-02T21:06:55;20.00;41.30
27823;DHT22;29019;47.630;8.262;2024-03-02T21:10:56;20.00;41.50
27823;DHT22;29019;47.630;8.262;2024-03-02T21:14:57;19.90;41.60
27823;DHT22;29019;47.630;8.262;2024-03-02T21:18:57;19.70;41.30
27823;DHT22;29019;47.630;8.262;2024-03-02T21:22:58;19.50;40.80
27823;DHT22;29019;47.630;8.262;2024-03-02T21:26:59;19.50;39.70
27823;DHT22;29019;47.630;8.262;2024-03-02T21:30:59;19.60;39.30
27823;DHT22;29019;47.630;8.262;2024-03-02T21:35:01;19.70;39.70
27823;DHT22;29019;47.630;8.262;2024-03-02T21:39:02;19.70;39.10
27823;DHT22;29019;47.630;8.262;2024-03-02T21:43:02;19.80;39.40
27823;DHT22;29019;47.630;8.262;2024-03-02T21:47:03;19.80;39.50
27823;DHT22;29019;47.630;8.262;2024-03-02T21:51:05;19.80;39.50
27823;DHT22;29019;47.630;8.262;2024-03-02T21:55:06;19.80;39.80
27823;DHT22;29019;47.630;8.262;2024-03-02T21:59:09;19.80;40.30
27823;DHT22;29019;47.630;8.262;2024-03-02T22:03:09;19.90;40.00
27823;DHT22;29019;47.630;8.262;2024-03-02T22:07:10;19.90;40.00
27823;DHT22;29019;47.630;8.262;2024-03-02T22:11:11;19.90;40.10
27823;DHT22;29019;47.630;8.262;2024-03-02T22:15:12;19.90;40.20
27823;DHT22;29019;47.630;8.262;2024-03-02T22:19:13;19.90;40.30
27823;DHT22;29019;47.630;8.262;2024-03-02T22:23:13;19.90;40.60
27823;DHT22;29019;47.630;8.262;2024-03-02T22:27:15;19.90;40.80
27823;DHT22;29019;47.630;8.262;2024-03-02T22:31:15;19.90;40.90
27823;DHT22;29019;47.630;8.262;2024-03-02T22:35:16;19.90;40.90
27823;DHT22;29019;47.630;8.262;2024-03-02T22:39:17;19.80;40.50
27823;DHT22;29019;47.630;8.262;2024-03-02T22:43:17;19.90;40.70
27823;DHT22;29019;47.630;8.262;2024-03-02T22:47:18;19.90;41.20
27823;DHT22;29019;47.630;8.262;2024-03-02T22:51:23;19.90;41.30
27823;DHT22;29019;47.630;8.262;2024-03-02T22:55:24;19.90;41.40
27823;DHT22;29019;47.630;8.262;2024-03-02T22:59:25;19.90;41.40
27823;DHT22;29019;47.630;8.262;2024-03-02T23:03:25;19.90;41.50
27823;DHT22;29019;47.630;8.262;2024-03-02T23:07:26;19.90;41.60
27823;DHT22;29019;47.630;8.262;2024-03-02T23:11:27;19.90;41.60
27823;DHT22;29019;47.630;8.262;2024-03-02T23:15:28;19.80;41.60
27823;DHT22;29019;47.630;8.262;2024-03-02T23:19:31;19.90;41.70
27823;DHT22;29019;47.630;8.262;2024-03-02T23:23:32;19.90;41.70
27823;DHT22;29019;47.630;8.262;2024-03-02T23:27:32;19.80;41.80
27823;DHT22;29019;47.630;8.262;2024-03-02T23:31:33;19.90;41.90
27823;DHT22;29019;47.630;8.262;2024-03-02T23:35:34;19.80;41.80
27823;DHT22;29019;47.630;8.262;2024-03-02T23:39:35;19.80;41.90
27823;DHT22;29019;47.630;8.262;2024-03-02T23:43:54;19.80;41.80
27823;DHT22;29019;47.630;8.262;2024-03-02T23:48:02;19.80;41.90
27823;DHT22;29019;47.630;8.262;2024-03-02T23:52:03;19.80;41.90
27823;DHT22;29019;47.630;8.262;2024-03-02T23:56:10;19.80;41.80
